createdAt,value
2022-08-08T00:00:51.235Z,940.78
2022-08-08T00:05:03.151Z,940.74
2022-08-08T00:10:04.314Z,940.80
2022-08-08T00:15:04.908Z,941.06
2022-08-08T00:20:04.288Z,941.15
2022-08-08T00:25:03.179Z,941.27
2022-08-08T00:30:05.033Z,941.31
2022-08-08T00:35:04.024Z,941.37
2022-08-08T00:41:08.236Z,941.45
2022-08-08T00:45:03.392Z,941.47
2022-08-08T00:50:04.223Z,941.55
2022-08-08T00:55:03.238Z,941.68
2022-08-08T01:00:05.007Z,941.78
2022-08-08T01:05:03.723Z,941.78
2022-08-08T01:10:06.088Z,941.88
2022-08-08T01:15:03.170Z,941.88
2022-08-08T01:20:04.535Z,941.88
2022-08-08T01:25:03.216Z,941.92
2022-08-08T01:30:04.664Z,941.94
2022-08-08T01:35:10.994Z,941.98
2022-08-08T01:40:04.295Z,942.06
2022-08-08T01:45:03.148Z,942.17
2022-08-08T01:50:04.443Z,942.27
2022-08-08T01:55:18.558Z,942.37
2022-08-08T02:00:06.333Z,942.47
2022-08-08T02:05:03.171Z,942.43
2022-08-08T02:10:11.582Z,942.35
2022-08-08T02:15:03.257Z,942.39
2022-08-08T02:20:08.099Z,942.37
2022-08-08T02:25:07.050Z,942.51
2022-08-08T02:30:05.520Z,942.53
2022-08-08T02:35:06.515Z,942.57
2022-08-08T02:40:04.324Z,942.59
2022-08-08T02:45:03.654Z,942.57
2022-08-08T02:50:04.180Z,942.55
2022-08-08T02:55:03.506Z,942.61
2022-08-08T03:00:16.102Z,942.53
2022-08-08T03:05:08.922Z,942.55
2022-08-08T03:10:04.343Z,942.41
2022-08-08T03:15:55.339Z,942.37
2022-08-08T03:20:04.297Z,942.37
2022-08-08T03:25:03.169Z,942.41
2022-08-08T03:30:05.309Z,942.39
2022-08-08T03:35:03.157Z,942.31
2022-08-08T03:40:04.399Z,942.21
2022-08-08T03:46:03.825Z,942.27
2022-08-08T03:50:04.288Z,942.25
2022-08-08T03:55:11.034Z,942.29
2022-08-08T04:00:08.255Z,942.25
2022-08-08T04:05:03.150Z,942.23
2022-08-08T04:10:07.509Z,942.08
2022-08-08T04:15:03.239Z,942.13
2022-08-08T04:20:04.763Z,942.17
2022-08-08T04:25:03.249Z,942.13
2022-08-08T04:30:17.640Z,942.13
2022-08-08T04:35:03.115Z,942.08
2022-08-08T04:40:07.709Z,941.98
2022-08-08T04:45:03.222Z,942.04
2022-08-08T04:50:04.797Z,941.98
2022-08-08T04:55:04.326Z,941.94
2022-08-08T05:00:04.987Z,941.98
2022-08-08T05:05:03.227Z,941.94
2022-08-08T05:10:04.249Z,941.90
2022-08-08T05:15:03.183Z,941.88
2022-08-08T05:20:13.022Z,941.84
2022-08-08T05:25:03.125Z,941.70
2022-08-08T05:30:05.059Z,941.68
2022-08-08T05:35:04.874Z,941.64
2022-08-08T05:40:04.169Z,941.68
2022-08-08T05:45:09.982Z,941.76
2022-08-08T05:50:04.192Z,941.78
2022-08-08T05:55:07.380Z,941.70
2022-08-08T06:00:23.194Z,941.68
2022-08-08T06:05:06.978Z,941.74
2022-08-08T06:10:06.295Z,941.72
2022-08-08T06:15:03.770Z,941.68
2022-08-08T06:20:04.241Z,941.63
2022-08-08T06:25:03.115Z,941.68
2022-08-08T06:30:05.497Z,941.68
2022-08-08T06:35:12.455Z,941.61
2022-08-08T06:40:04.382Z,941.49
2022-08-08T06:45:05.324Z,941.51
2022-08-08T06:50:04.421Z,941.66
2022-08-08T06:55:04.270Z,941.66
2022-08-08T07:00:11.050Z,941.61
2022-08-08T07:05:04.711Z,941.63
2022-08-08T07:10:08.053Z,941.64
2022-08-08T07:15:04.420Z,941.61
2022-08-08T07:20:04.213Z,941.63
2022-08-08T07:25:03.381Z,941.63
2022-08-08T07:30:05.899Z,941.66
2022-08-08T07:35:03.122Z,941.74
2022-08-08T07:40:04.398Z,941.76
2022-08-08T07:45:03.145Z,941.70
2022-08-08T07:50:04.370Z,941.76
2022-08-08T07:55:03.216Z,941.76
2022-08-08T08:00:04.537Z,941.84
2022-08-08T08:05:03.541Z,941.92
2022-08-08T08:10:04.450Z,941.94
2022-08-08T08:15:04.285Z,941.88
2022-08-08T08:20:04.296Z,941.88
2022-08-08T08:25:07.324Z,941.82
2022-08-08T08:30:05.298Z,941.84
2022-08-08T08:35:03.606Z,941.86
2022-08-08T08:40:05.303Z,941.88
2022-08-08T08:45:05.056Z,941.84
2022-08-08T08:50:04.229Z,941.92
2022-08-08T08:55:03.239Z,942.00
2022-08-08T09:00:05.745Z,942.11
2022-08-08T09:05:03.318Z,942.19
2022-08-08T09:10:04.694Z,942.31
2022-08-08T09:15:03.206Z,942.35
2022-08-08T09:21:55.378Z,942.35
2022-08-08T09:25:03.852Z,942.35
2022-08-08T09:30:04.652Z,942.43
2022-08-08T09:35:07.886Z,942.57
2022-08-08T09:40:04.231Z,942.68
2022-08-08T09:45:03.772Z,942.84
2022-08-08T09:50:11.601Z,942.88
2022-08-08T09:55:03.236Z,942.92
2022-08-08T10:00:32.793Z,943.02
2022-08-08T10:05:07.174Z,943.08
2022-08-08T10:10:06.764Z,943.16
2022-08-08T10:15:03.125Z,943.27
2022-08-08T10:20:04.421Z,943.37
2022-08-08T10:25:03.223Z,943.35
2022-08-08T10:30:06.299Z,943.41
2022-08-08T10:35:03.201Z,943.59
2022-08-08T10:40:06.823Z,943.65
2022-08-08T10:45:07.920Z,943.76
2022-08-08T10:50:04.756Z,943.78
2022-08-08T10:55:05.302Z,943.70
2022-08-08T11:00:05.606Z,943.72
2022-08-08T11:05:05.368Z,943.82
2022-08-08T11:10:04.233Z,943.88
2022-08-08T11:15:03.189Z,944.02
2022-08-08T11:20:11.238Z,944.04
2022-08-08T11:25:03.374Z,944.00
2022-08-08T11:30:19.349Z,944.08
2022-08-08T11:35:10.467Z,944.17
2022-08-08T11:40:04.267Z,944.15
2022-08-08T11:45:03.210Z,944.12
2022-08-08T11:50:04.336Z,944.17
2022-08-08T11:55:03.271Z,944.25
2022-08-08T12:00:06.580Z,944.39
2022-08-08T12:05:03.132Z,944.49
2022-08-08T12:10:08.691Z,944.51
2022-08-08T12:15:03.187Z,944.59
2022-08-08T12:20:04.374Z,944.65
2022-08-08T12:25:03.151Z,944.70
2022-08-08T12:30:05.108Z,944.78
2022-08-08T12:35:05.126Z,944.82
2022-08-08T12:40:04.230Z,944.84
2022-08-08T12:45:03.220Z,944.90
2022-08-08T12:50:07.328Z,944.94
2022-08-08T12:55:03.171Z,945.02
2022-08-08T13:00:12.300Z,945.08
2022-08-08T13:05:05.817Z,945.10
2022-08-08T13:10:05.957Z,945.14
2022-08-08T13:15:06.402Z,945.18
2022-08-08T13:20:08.564Z,945.14
2022-08-08T13:25:03.229Z,945.14
2022-08-08T13:30:10.532Z,945.12
2022-08-08T13:35:03.634Z,945.10
2022-08-08T13:40:04.258Z,945.06
2022-08-08T13:45:04.453Z,945.08
2022-08-08T13:50:34.256Z,945.04
2022-08-08T13:55:03.144Z,944.96
2022-08-08T14:00:04.972Z,944.88
2022-08-08T14:05:04.766Z,944.80
2022-08-08T14:10:11.746Z,944.67
2022-08-08T14:15:03.320Z,944.61
2022-08-08T14:20:06.234Z,944.53
2022-08-08T14:25:03.126Z,944.37
2022-08-08T14:30:08.184Z,944.37
2022-08-08T14:35:04.401Z,944.33
2022-08-08T14:40:06.229Z,944.21
2022-08-08T14:45:03.124Z,944.15
2022-08-08T14:50:07.206Z,944.13
2022-08-08T14:55:03.168Z,944.17
2022-08-08T15:00:06.480Z,944.19
2022-08-08T15:05:08.461Z,944.19
2022-08-08T15:10:04.366Z,944.06
2022-08-08T15:15:06.633Z,943.92
2022-08-08T15:20:04.251Z,943.78
2022-08-08T15:25:03.254Z,943.65
2022-08-08T15:30:05.569Z,943.63
2022-08-08T15:35:04.227Z,943.61
2022-08-08T15:40:04.367Z,943.59
2022-08-08T15:45:03.216Z,943.49
2022-08-08T15:50:04.399Z,943.31
2022-08-08T15:55:03.160Z,943.18
2022-08-08T16:00:14.218Z,943.08
2022-08-08T16:05:03.978Z,943.06
2022-08-08T16:13:06.969Z,943.00
2022-08-08T16:15:03.169Z,942.88
2022-08-08T16:20:04.364Z,942.70
2022-08-08T16:25:03.831Z,942.65
2022-08-08T16:30:08.553Z,942.55
2022-08-08T16:35:03.234Z,942.49
2022-08-08T16:40:04.482Z,942.45
2022-08-08T16:45:11.247Z,942.37
2022-08-08T16:50:04.314Z,942.31
2022-08-08T16:55:24.713Z,942.27
2022-08-08T17:00:09.061Z,942.21
2022-08-08T17:05:03.393Z,942.13
2022-08-08T17:10:04.312Z,942.10
2022-08-08T17:15:04.150Z,941.94
2022-08-08T17:20:04.289Z,941.78
2022-08-08T17:25:03.322Z,941.68
2022-08-08T17:30:08.319Z,941.70
2022-08-08T17:35:14.740Z,941.66
2022-08-08T17:40:11.192Z,941.64
2022-08-08T17:45:03.187Z,941.59
2022-08-08T17:50:09.637Z,941.49
2022-08-08T17:55:05.302Z,941.51
2022-08-08T18:00:10.368Z,941.39
2022-08-08T18:05:04.642Z,941.39
2022-08-08T18:10:04.366Z,941.47
2022-08-08T18:15:03.187Z,941.41
2022-08-08T18:20:36.430Z,941.41
2022-08-08T18:25:03.251Z,941.47
2022-08-08T18:30:04.624Z,941.37
2022-08-08T18:35:03.316Z,941.37
2022-08-08T18:40:04.366Z,941.43
2022-08-08T18:45:09.022Z,941.53
2022-08-08T18:50:04.486Z,941.45
2022-08-08T18:55:10.045Z,941.47
2022-08-08T19:00:07.514Z,941.37
2022-08-08T19:05:05.351Z,941.31
2022-08-08T19:10:13.868Z,941.33
2022-08-08T19:15:03.116Z,941.49
2022-08-08T19:20:04.221Z,941.64
2022-08-08T19:25:05.130Z,941.72
2022-08-08T19:30:18.160Z,941.70
2022-08-08T19:35:05.576Z,941.64
2022-08-08T19:40:04.222Z,941.64
2022-08-08T19:45:05.087Z,941.74
2022-08-08T19:50:04.227Z,941.84
2022-08-08T19:55:05.047Z,941.88
2022-08-08T20:00:04.328Z,941.88
2022-08-08T20:05:03.197Z,941.92
2022-08-08T20:10:04.290Z,942.04
2022-08-08T20:15:09.839Z,942.15
2022-08-08T20:20:04.216Z,942.15
2022-08-08T20:25:03.187Z,942.23
2022-08-08T20:30:05.212Z,942.23
2022-08-08T20:35:03.190Z,942.27
2022-08-08T20:40:04.389Z,942.27
2022-08-08T20:45:03.131Z,942.29
2022-08-08T20:50:04.277Z,942.43
2022-08-08T20:55:07.557Z,942.43
2022-08-08T21:00:05.210Z,942.45
2022-08-08T21:05:03.227Z,942.45
2022-08-08T21:10:08.300Z,942.49
2022-08-08T21:15:06.781Z,942.51
2022-08-08T21:20:04.177Z,942.51
2022-08-08T21:25:03.261Z,942.41
2022-08-08T21:30:10.693Z,942.47
2022-08-08T21:36:13.360Z,942.51
2022-08-08T21:40:05.262Z,942.59
2022-08-08T21:45:20.998Z,942.74
2022-08-08T21:50:04.355Z,942.80
2022-08-08T21:55:04.148Z,942.84
2022-08-08T22:00:05.233Z,942.92
2022-08-08T22:05:03.850Z,943.06
2022-08-08T22:10:04.430Z,943.08
2022-08-08T22:15:04.266Z,943.08
2022-08-08T22:20:11.686Z,943.31
2022-08-08T22:25:04.347Z,943.33
2022-08-08T22:30:05.788Z,943.43
2022-08-08T22:35:03.618Z,943.63
2022-08-08T22:40:04.602Z,943.61
2022-08-08T22:45:03.258Z,943.63
2022-08-08T22:50:04.497Z,943.74
2022-08-08T22:55:05.226Z,943.82
2022-08-08T23:00:05.182Z,943.80
2022-08-08T23:05:05.027Z,943.96
2022-08-08T23:10:04.296Z,944.06
2022-08-08T23:15:11.021Z,944.17
2022-08-08T23:20:04.326Z,944.13
2022-08-08T23:25:03.228Z,944.13
2022-08-08T23:30:04.514Z,944.25
2022-08-08T23:35:07.935Z,944.47
2022-08-08T23:40:05.619Z,944.59
2022-08-08T23:45:03.476Z,944.67
2022-08-08T23:50:05.635Z,944.78
2022-08-08T23:55:13.854Z,944.76
